sensor_id;sensor_type;location;lat;lon;timestamp;temperature;humidity
69082;DHT22;69029;51.986;5.760;2023-05-08T00:00:46;15.80;99.10
69082;DHT22;69029;51.986;5.760;2023-05-08T00:03:12;15.80;99.10
69082;DHT22;69029;51.986;5.760;2023-05-08T00:05:41;15.70;99.90
69082;DHT22;69029;51.986;5.760;2023-05-08T00:08:06;15.70;99.10
69082;DHT22;69029;51.986;5.760;2023-05-08T00:10:32;15.70;99.90
69082;DHT22;69029;51.986;5.760;2023-05-08T00:12:58;15.60;99.90
69082;DHT22;69029;51.986;5.760;2023-05-08T00:15:23;15.60;99.90
69082;DHT22;69029;51.986;5.760;2023-05-08T00:17:49;15.60;99.90
69082;DHT22;69029;51.986;5.760;2023-05-08T00:20:15;15.50;99.80
69082;DHT22;69029;51.986;5.760;2023-05-08T00:22:40;15.50;99.70
69082;DHT22;69029;51.986;5.760;2023-05-08T00:25:06;15.50;99.90
69082;DHT22;69029;51.986;5.760;2023-05-08T00:27:33;15.40;99.20
69082;DHT22;69029;51.986;5.760;2023-05-08T00:29:59;15.40;99.70
69082;DHT22;69029;51.986;5.760;2023-05-08T00:32:24;15.30;99.90
69082;DHT22;69029;51.986;5.760;2023-05-08T00:34:50;15.30;99.80
69082;DHT22;69029;51.986;5.760;2023-05-08T00:37:16;15.30;99.90
69082;DHT22;69029;51.986;5.760;2023-05-08T00:39:41;15.30;99.20
69082;DHT22;69029;51.986;5.760;2023-05-08T00:42:07;15.20;99.90
69082;DHT22;69029;51.986;5.760;2023-05-08T00:44:33;15.20;98.80
69082;DHT22;69029;51.986;5.760;2023-05-08T00:46:59;15.20;98.30
69082;DHT22;69029;51.986;5.760;2023-05-08T00:49:25;15.20;99.90
69082;DHT22;69029;51.986;5.760;2023-05-08T00:51:53;15.10;99.70
69082;DHT22;69029;51.986;5.760;2023-05-08T00:54:20;15.10;99.30
69082;DHT22;69029;51.986;5.760;2023-05-08T00:56:46;15.10;99.90
69082;DHT22;69029;51.986;5.760;2023-05-08T00:59:17;15.10;99.90
69082;DHT22;69029;51.986;5.760;2023-05-08T01:01:48;15.00;99.10
69082;DHT22;69029;51.986;5.760;2023-05-08T01:04:17;15.00;99.80
69082;DHT22;69029;51.986;5.760;2023-05-08T01:06:44;14.90;99.90
69082;DHT22;69029;51.986;5.760;2023-05-08T01:09:11;14.90;99.90
69082;DHT22;69029;51.986;5.760;2023-05-08T01:11:43;14.90;99.90
69082;DHT22;69029;51.986;5.760;2023-05-08T01:14:35;14.90;99.90
69082;DHT22;69029;51.986;5.760;2023-05-08T01:17:15;14.90;99.90
69082;DHT22;69029;51.986;5.760;2023-05-08T01:31:04;14.70;98.70
69082;DHT22;69029;51.986;5.760;2023-05-08T01:36:28;14.60;99.90
69082;DHT22;69029;51.986;5.760;2023-05-08T01:41:36;14.60;99.80
69082;DHT22;69029;51.986;5.760;2023-05-08T01:44:11;14.60;99.40
69082;DHT22;69029;51.986;5.760;2023-05-08T01:46:38;14.50;99.90
69082;DHT22;69029;51.986;5.760;2023-05-08T01:49:29;14.50;99.90
69082;DHT22;69029;51.986;5.760;2023-05-08T01:52:02;14.40;99.90
69082;DHT22;69029;51.986;5.760;2023-05-08T01:54:43;14.40;99.10
69082;DHT22;69029;51.986;5.760;2023-05-08T01:57:13;14.40;99.50
69082;DHT22;69029;51.986;5.760;2023-05-08T01:59:46;14.30;99.60
69082;DHT22;69029;51.986;5.760;2023-05-08T02:02:12;14.30;99.90
69082;DHT22;69029;51.986;5.760;2023-05-08T02:04:40;14.20;99.10
69082;DHT22;69029;51.986;5.760;2023-05-08T02:07:10;14.20;97.40
69082;DHT22;69029;51.986;5.760;2023-05-08T02:09:40;14.20;99.30
69082;DHT22;69029;51.986;5.760;2023-05-08T02:12:07;14.10;98.50
69082;DHT22;69029;51.986;5.760;2023-05-08T02:14:35;14.10;98.70
69082;DHT22;69029;51.986;5.760;2023-05-08T02:17:02;14.10;99.60
69082;DHT22;69029;51.986;5.760;2023-05-08T02:19:30;14.00;99.50
69082;DHT22;69029;51.986;5.760;2023-05-08T02:21:57;14.00;99.90
69082;DHT22;69029;51.986;5.760;2023-05-08T02:24:24;14.00;99.90
69082;DHT22;69029;51.986;5.760;2023-05-08T02:26:52;14.00;99.30
69082;DHT22;69029;51.986;5.760;2023-05-08T02:29:19;14.00;99.60
69082;DHT22;69029;51.986;5.760;2023-05-08T02:31:46;13.90;99.90
69082;DHT22;69029;51.986;5.760;2023-05-08T02:34:13;13.90;99.90
69082;DHT22;69029;51.986;5.760;2023-05-08T02:36:40;13.90;99.90
69082;DHT22;69029;51.986;5.760;2023-05-08T02:39:07;13.90;99.90
69082;DHT22;69029;51.986;5.760;2023-05-08T02:41:36;13.90;99.60
69082;DHT22;69029;51.986;5.760;2023-05-08T02:44:08;13.90;99.30
69082;DHT22;69029;51.986;5.760;2023-05-08T02:46:55;13.80;99.00
69082;DHT22;69029;51.986;5.760;2023-05-08T02:49:38;13.80;98.60
69082;DHT22;69029;51.986;5.760;2023-05-08T02:52:24;13.80;99.70
69082;DHT22;69029;51.986;5.760;2023-05-08T02:58:29;13.70;99.20
69082;DHT22;69029;51.986;5.760;2023-05-08T03:00:59;13.70;99.90
69082;DHT22;69029;51.986;5.760;2023-05-08T03:03:58;13.70;99.90
69082;DHT22;69029;51.986;5.760;2023-05-08T03:06:26;13.60;99.90
69082;DHT22;69029;51.986;5.760;2023-05-08T03:08:57;13.60;98.70
69082;DHT22;69029;51.986;5.760;2023-05-08T03:11:36;13.60;98.90
69082;DHT22;69029;51.986;5.760;2023-05-08T03:14:05;13.60;97.30
69082;DHT22;69029;51.986;5.760;2023-05-08T03:16:36;13.60;99.40
69082;DHT22;69029;51.986;5.760;2023-05-08T03:19:07;13.60;98.30
69082;DHT22;69029;51.986;5.760;2023-05-08T03:21:35;13.60;96.70
69082;DHT22;69029;51.986;5.760;2023-05-08T03:24:04;13.60;96.50
69082;DHT22;69029;51.986;5.760;2023-05-08T03:26:31;13.60;98.00
69082;DHT22;69029;51.986;5.760;2023-05-08T03:28:58;13.60;99.00
69082;DHT22;69029;51.986;5.760;2023-05-08T03:31:24;13.60;98.60
69082;DHT22;69029;51.986;5.760;2023-05-08T03:33:53;13.60;98.70
69082;DHT22;69029;51.986;5.760;2023-05-08T03:36:19;13.60;98.40
69082;DHT22;69029;51.986;5.760;2023-05-08T03:38:45;13.50;99.40
69082;DHT22;69029;51.986;5.760;2023-05-08T03:41:11;13.50;97.20
69082;DHT22;69029;51.986;5.760;2023-05-08T03:43:37;13.60;98.30
69082;DHT22;69029;51.986;5.760;2023-05-08T03:46:06;13.50;99.70
69082;DHT22;69029;51.986;5.760;2023-05-08T03:48:33;13.50;98.20
69082;DHT22;69029;51.986;5.760;2023-05-08T03:51:03;13.50;98.70
69082;DHT22;69029;51.986;5.760;2023-05-08T03:53:30;13.50;98.70
69082;DHT22;69029;51.986;5.760;2023-05-08T03:55:57;13.50;98.30
69082;DHT22;69029;51.986;5.760;2023-05-08T04:01:31;13.50;99.30
69082;DHT22;69029;51.986;5.760;2023-05-08T04:06:42;13.50;99.90
69082;DHT22;69029;51.986;5.760;2023-05-08T04:09:20;13.50;99.90
69082;DHT22;69029;51.986;5.760;2023-05-08T04:14:25;13.40;99.90
69082;DHT22;69029;51.986;5.760;2023-05-08T04:16:52;13.50;99.90
69082;DHT22;69029;51.986;5.760;2023-05-08T04:19:23;13.50;99.90
69082;DHT22;69029;51.986;5.760;2023-05-08T04:21:50;13.50;99.10
69082;DHT22;69029;51.986;5.760;2023-05-08T04:24:21;13.50;98.40
69082;DHT22;69029;51.986;5.760;2023-05-08T04:26:48;13.50;99.90
69082;DHT22;69029;51.986;5.760;2023-05-08T04:29:14;13.50;99.70
69082;DHT22;69029;51.986;5.760;2023-05-08T04:31:41;13.50;99.90
69082;DHT22;69029;51.986;5.760;2023-05-08T04:34:07;13.50;99.90
69082;DHT22;69029;51.986;5.760;2023-05-08T04:36:34;13.50;99.90
69082;DHT22;69029;51.986;5.760;2023-05-08T04:38:59;13.40;99.90
69082;DHT22;69029;51.986;5.760;2023-05-08T04:41:26;13.50;99.90
69082;DHT22;69029;51.986;5.760;2023-05-08T04:43:52;13.40;99.90
69082;DHT22;69029;51.986;5.760;2023-05-08T04:46:18;13.40;99.90
69082;DHT22;69029;51.986;5.760;2023-05-08T04:48:44;13.40;99.90
69082;DHT22;69029;51.986;5.760;2023-05-08T04:51:09;13.40;99.90
69082;DHT22;69029;51.986;5.760;2023-05-08T04:53:36;13.40;99.90
69082;DHT22;69029;51.986;5.760;2023-05-08T04:56:01;13.40;99.90
69082;DHT22;69029;51.986;5.760;2023-05-08T04:58:27;13.40;99.90
69082;DHT22;69029;51.986;5.760;2023-05-08T05:00:53;13.40;99.90
69082;DHT22;69029;51.986;5.760;2023-05-08T05:03:19;13.40;99.90
69082;DHT22;69029;51.986;5.760;2023-05-08T05:05:44;13.40;99.90
69082;DHT22;69029;51.986;5.760;2023-05-08T05:08:10;13.40;99.90
69082;DHT22;69029;51.986;5.760;2023-05-08T05:10:37;13.40;99.90
69082;DHT22;69029;51.986;5.760;2023-05-08T05:13:03;13.40;99.90
69082;DHT22;69029;51.986;5.760;2023-05-08T05:15:29;13.50;99.90
69082;DHT22;69029;51.986;5.760;2023-05-08T05:17:55;13.50;99.90
69082;DHT22;69029;51.986;5.760;2023-05-08T05:20:20;13.50;99.90
69082;DHT22;69029;51.986;5.760;2023-05-08T05:22:46;13.50;99.90
69082;DHT22;69029;51.986;5.760;2023-05-08T05:25:12;13.50;99.90
69082;DHT22;69029;51.986;5.760;2023-05-08T05:27:37;13.50;99.90
69082;DHT22;69029;51.986;5.760;2023-05-08T05:30:03;13.50;99.90
69082;DHT22;69029;51.986;5.760;2023-05-08T05:32:29;13.60;99.90
69082;DHT22;69029;51.986;5.760;2023-05-08T05:34:54;13.60;99.90
69082;DHT22;69029;51.986;5.760;2023-05-08T05:37:21;13.60;99.90
69082;DHT22;69029;51.986;5.760;2023-05-08T05:39:47;13.70;99.90
69082;DHT22;69029;51.986;5.760;2023-05-08T05:42:13;13.70;99.90
69082;DHT22;69029;51.986;5.760;2023-05-08T05:44:38;13.80;99.90
69082;DHT22;69029;51.986;5.760;2023-05-08T05:47:04;13.90;99.90
69082;DHT22;69029;51.986;5.760;2023-05-08T05:49:30;14.00;99.90
69082;DHT22;69029;51.986;5.760;2023-05-08T05:51:56;14.00;99.90
69082;DHT22;69029;51.986;5.760;2023-05-08T05:54:21;14.20;99.90
69082;DHT22;69029;51.986;5.760;2023-05-08T05:56:48;14.30;99.90
69082;DHT22;69029;51.986;5.760;2023-05-08T05:59:14;14.40;99.90
69082;DHT22;69029;51.986;5.760;2023-05-08T06:01:40;14.60;99.90
69082;DHT22;69029;51.986;5.760;2023-05-08T06:04:05;14.70;99.90
69082;DHT22;69029;51.986;5.760;2023-05-08T06:06:31;14.90;99.90
69082;DHT22;69029;51.986;5.760;2023-05-08T06:08:56;15.00;99.90
69082;DHT22;69029;51.986;5.760;2023-05-08T06:11:22;15.20;99.90
69082;DHT22;69029;51.986;5.760;2023-05-08T06:13:48;15.40;99.90
69082;DHT22;69029;51.986;5.760;2023-05-08T06:16:14;15.50;99.90
69082;DHT22;69029;51.986;5.760;2023-05-08T06:18:39;15.50;99.90
69082;DHT22;69029;51.986;5.760;2023-05-08T06:21:05;15.60;99.90
69082;DHT22;69029;51.986;5.760;2023-05-08T06:23:31;15.60;99.90
69082;DHT22;69029;51.986;5.760;2023-05-08T06:25:57;15.60;99.90
69082;DHT22;69029;51.986;5.760;2023-05-08T06:28:23;15.70;99.90
69082;DHT22;69029;51.986;5.760;2023-05-08T06:30:51;15.70;99.90
69082;DHT22;69029;51.986;5.760;2023-05-08T06:33:17;15.70;99.90
69082;DHT22;69029;51.986;5.760;2023-05-08T06:35:47;15.70;99.90
69082;DHT22;69029;51.986;5.760;2023-05-08T06:38:12;15.80;99.90
69082;DHT22;69029;51.986;5.760;2023-05-08T06:40:44;15.90;99.90
69082;DHT22;69029;51.986;5.760;2023-05-08T06:43:11;16.00;99.90
69082;DHT22;69029;51.986;5.760;2023-05-08T06:45:36;16.00;99.90
69082;DHT22;69029;51.986;5.760;2023-05-08T06:48:02;16.10;99.90
69082;DHT22;69029;51.986;5.760;2023-05-08T06:50:28;16.10;99.80
69082;DHT22;69029;51.986;5.760;2023-05-08T06:52:53;16.20;99.90
69082;DHT22;69029;51.986;5.760;2023-05-08T06:55:19;16.20;99.90
69082;DHT22;69029;51.986;5.760;2023-05-08T06:57:45;16.30;99.90
69082;DHT22;69029;51.986;5.760;2023-05-08T07:00:11;16.40;99.90
69082;DHT22;69029;51.986;5.760;2023-05-08T07:02:36;16.50;99.90
69082;DHT22;69029;51.986;5.760;2023-05-08T07:05:02;16.60;99.90
69082;DHT22;69029;51.986;5.760;2023-05-08T07:07:28;16.80;99.90
69082;DHT22;69029;51.986;5.760;2023-05-08T07:09:55;16.90;99.90
69082;DHT22;69029;51.986;5.760;2023-05-08T07:12:20;17.00;99.90
69082;DHT22;69029;51.986;5.760;2023-05-08T07:14:47;17.10;99.90
69082;DHT22;69029;51.986;5.760;2023-05-08T07:17:13;17.10;99.90
69082;DHT22;69029;51.986;5.760;2023-05-08T07:19:38;17.20;99.90
69082;DHT22;69029;51.986;5.760;2023-05-08T07:22:04;17.30;99.90
69082;DHT22;69029;51.986;5.760;2023-05-08T07:24:31;17.50;99.90
69082;DHT22;69029;51.986;5.760;2023-05-08T07:26:58;17.60;99.90
69082;DHT22;69029;51.986;5.760;2023-05-08T07:29:24;17.70;99.90
69082;DHT22;69029;51.986;5.760;2023-05-08T07:31:50;17.90;99.90
69082;DHT22;69029;51.986;5.760;2023-05-08T07:34:16;18.00;99.90
69082;DHT22;69029;51.986;5.760;2023-05-08T07:36:42;18.00;98.40
69082;DHT22;69029;51.986;5.760;2023-05-08T07:39:08;18.00;93.80
69082;DHT22;69029;51.986;5.760;2023-05-08T07:41:33;18.00;96.30
69082;DHT22;69029;51.986;5.760;2023-05-08T07:44:01;18.00;93.60
69082;DHT22;69029;51.986;5.760;2023-05-08T07:46:27;18.00;95.80
69082;DHT22;69029;51.986;5.760;2023-05-08T07:48:53;18.00;95.20
69082;DHT22;69029;51.986;5.760;2023-05-08T07:51:18;18.10;99.30
69082;DHT22;69029;51.986;5.760;2023-05-08T07:53:44;18.30;97.80
69082;DHT22;69029;51.986;5.760;2023-05-08T07:56:10;18.30;94.50
69082;DHT22;69029;51.986;5.760;2023-05-08T07:58:35;18.30;94.70
69082;DHT22;69029;51.986;5.760;2023-05-08T08:01:01;18.40;97.60
69082;DHT22;69029;51.986;5.760;2023-05-08T08:03:28;18.60;99.10
69082;DHT22;69029;51.986;5.760;2023-05-08T08:05:53;18.70;91.40
69082;DHT22;69029;51.986;5.760;2023-05-08T08:08:20;18.80;93.90
69082;DHT22;69029;51.986;5.760;2023-05-08T08:10:45;18.80;94.00
69082;DHT22;69029;51.986;5.760;2023-05-08T08:13:11;18.90;92.80
69082;DHT22;69029;51.986;5.760;2023-05-08T08:15:36;18.90;90.90
69082;DHT22;69029;51.986;5.760;2023-05-08T08:18:02;18.90;91.70
69082;DHT22;69029;51.986;5.760;2023-05-08T08:20:28;18.90;94.60
69082;DHT22;69029;51.986;5.760;2023-05-08T08:22:53;19.00;94.70
69082;DHT22;69029;51.986;5.760;2023-05-08T08:25:19;19.20;92.50
69082;DHT22;69029;51.986;5.760;2023-05-08T08:27:45;19.30;92.40
69082;DHT22;69029;51.986;5.760;2023-05-08T08:30:10;19.40;92.10
69082;DHT22;69029;51.986;5.760;2023-05-08T08:32:36;19.50;92.00
69082;DHT22;69029;51.986;5.760;2023-05-08T08:35:02;19.50;91.20
69082;DHT22;69029;51.986;5.760;2023-05-08T08:37:28;19.60;91.60
69082;DHT22;69029;51.986;5.760;2023-05-08T08:39:53;19.80;94.50
69082;DHT22;69029;51.986;5.760;2023-05-08T08:42:19;20.10;91.90
69082;DHT22;69029;51.986;5.760;2023-05-08T08:44:51;20.00;90.20
69082;DHT22;69029;51.986;5.760;2023-05-08T08:47:18;20.20;91.80
69082;DHT22;69029;51.986;5.760;2023-05-08T08:49:47;20.30;91.00
69082;DHT22;69029;51.986;5.760;2023-05-08T08:54:48;20.50;91.10
69082;DHT22;69029;51.986;5.760;2023-05-08T08:57:15;20.70;91.70
69082;DHT22;69029;51.986;5.760;2023-05-08T08:59:41;20.70;86.50
69082;DHT22;69029;51.986;5.760;2023-05-08T09:02:11;20.70;88.30
69082;DHT22;69029;51.986;5.760;2023-05-08T09:04:38;20.50;86.90
69082;DHT22;69029;51.986;5.760;2023-05-08T09:07:04;20.30;87.70
69082;DHT22;69029;51.986;5.760;2023-05-08T09:09:40;20.40;89.90
69082;DHT22;69029;51.986;5.760;2023-05-08T09:12:08;20.50;89.20
69082;DHT22;69029;51.986;5.760;2023-05-08T09:14:34;20.60;89.10
69082;DHT22;69029;51.986;5.760;2023-05-08T09:17:00;20.80;87.90
69082;DHT22;69029;51.986;5.760;2023-05-08T09:19:27;20.80;86.70
69082;DHT22;69029;51.986;5.760;2023-05-08T09:21:53;21.10;90.40
69082;DHT22;69029;51.986;5.760;2023-05-08T09:24:19;21.10;86.10
69082;DHT22;69029;51.986;5.760;2023-05-08T09:26:45;21.20;87.80
69082;DHT22;69029;51.986;5.760;2023-05-08T09:29:17;21.30;85.00
69082;DHT22;69029;51.986;5.760;2023-05-08T09:31:44;21.50;90.50
69082;DHT22;69029;51.986;5.760;2023-05-08T09:36:53;21.70;85.00
69082;DHT22;69029;51.986;5.760;2023-05-08T09:39:23;21.50;80.90
69082;DHT22;69029;51.986;5.760;2023-05-08T09:42:00;21.30;85.50
69082;DHT22;69029;51.986;5.760;2023-05-08T09:44:26;21.50;86.50
69082;DHT22;69029;51.986;5.760;2023-05-08T09:47:14;21.70;84.30
69082;DHT22;69029;51.986;5.760;2023-05-08T09:50:03;21.90;85.50
69082;DHT22;69029;51.986;5.760;2023-05-08T09:52:30;22.00;82.10
69082;DHT22;69029;51.986;5.760;2023-05-08T09:57:27;22.00;82.30
69082;DHT22;69029;51.986;5.760;2023-05-08T10:00:11;22.20;82.20
69082;DHT22;69029;51.986;5.760;2023-05-08T10:02:41;22.40;82.00
69082;DHT22;69029;51.986;5.760;2023-05-08T10:05:29;22.80;84.40
69082;DHT22;69029;51.986;5.760;2023-05-08T10:07:56;22.90;80.90
69082;DHT22;69029;51.986;5.760;2023-05-08T10:10:27;22.80;80.10
69082;DHT22;69029;51.986;5.760;2023-05-08T10:12:55;22.80;80.60
69082;DHT22;69029;51.986;5.760;2023-05-08T10:15:23;22.70;79.80
69082;DHT22;69029;51.986;5.760;2023-05-08T10:17:56;22.80;80.50
69082;DHT22;69029;51.986;5.760;2023-05-08T10:20:25;22.50;81.00
69082;DHT22;69029;51.986;5.760;2023-05-08T10:22:55;22.40;81.60
69082;DHT22;69029;51.986;5.760;2023-05-08T10:25:22;22.40;82.50
69082;DHT22;69029;51.986;5.760;2023-05-08T10:31:11;22.30;82.30
69082;DHT22;69029;51.986;5.760;2023-05-08T10:33:40;22.30;83.00
69082;DHT22;69029;51.986;5.760;2023-05-08T10:36:09;22.20;82.30
69082;DHT22;69029;51.986;5.760;2023-05-08T10:38:36;22.30;83.00
69082;DHT22;69029;51.986;5.760;2023-05-08T10:41:02;22.60;82.20
69082;DHT22;69029;51.986;5.760;2023-05-08T10:43:28;22.60;81.60
69082;DHT22;69029;51.986;5.760;2023-05-08T10:45:56;22.80;81.30
69082;DHT22;69029;51.986;5.760;2023-05-08T10:51:36;22.50;80.90
69082;DHT22;69029;51.986;5.760;2023-05-08T10:54:09;22.60;81.50
69082;DHT22;69029;51.986;5.760;2023-05-08T10:56:37;22.60;81.20
69082;DHT22;69029;51.986;5.760;2023-05-08T10:59:04;22.60;82.00
69082;DHT22;69029;51.986;5.760;2023-05-08T11:01:30;22.90;80.30
69082;DHT22;69029;51.986;5.760;2023-05-08T11:03:56;23.20;79.50
69082;DHT22;69029;51.986;5.760;2023-05-08T11:06:47;23.50;79.70
69082;DHT22;69029;51.986;5.760;2023-05-08T11:09:30;23.90;79.60
69082;DHT22;69029;51.986;5.760;2023-05-08T11:12:24;24.20;76.70
69082;DHT22;69029;51.986;5.760;2023-05-08T11:15:02;24.10;78.90
69082;DHT22;69029;51.986;5.760;2023-05-08T11:17:30;23.90;77.00
69082;DHT22;69029;51.986;5.760;2023-05-08T11:20:00;23.70;75.70
69082;DHT22;69029;51.986;5.760;2023-05-08T11:22:31;24.20;75.90
69082;DHT22;69029;51.986;5.760;2023-05-08T11:27:37;24.80;75.30
69082;DHT22;69029;51.986;5.760;2023-05-08T11:30:32;25.00;74.50
69082;DHT22;69029;51.986;5.760;2023-05-08T11:38:33;26.60;74.00
69082;DHT22;69029;51.986;5.760;2023-05-08T11:41:00;27.50;73.60
69082;DHT22;69029;51.986;5.760;2023-05-08T11:46:05;27.30;74.20
69082;DHT22;69029;51.986;5.760;2023-05-08T11:48:34;26.90;77.00
69082;DHT22;69029;51.986;5.760;2023-05-08T11:51:01;26.60;75.60
69082;DHT22;69029;51.986;5.760;2023-05-08T11:53:28;26.50;75.20
69082;DHT22;69029;51.986;5.760;2023-05-08T11:55:54;26.50;72.30
69082;DHT22;69029;51.986;5.760;2023-05-08T11:58:20;26.30;72.10
69082;DHT22;69029;51.986;5.760;2023-05-08T12:00:47;26.40;75.90
69082;DHT22;69029;51.986;5.760;2023-05-08T12:03:14;26.50;74.00
69082;DHT22;69029;51.986;5.760;2023-05-08T12:05:40;26.50;68.60
69082;DHT22;69029;51.986;5.760;2023-05-08T12:08:09;26.60;70.40
69082;DHT22;69029;51.986;5.760;2023-05-08T12:13:22;27.70;65.60
69082;DHT22;69029;51.986;5.760;2023-05-08T12:15:50;27.10;62.20
69082;DHT22;69029;51.986;5.760;2023-05-08T12:18:17;26.50;62.80
69082;DHT22;69029;51.986;5.760;2023-05-08T12:20:43;25.80;66.90
69082;DHT22;69029;51.986;5.760;2023-05-08T12:23:10;25.60;68.70
69082;DHT22;69029;51.986;5.760;2023-05-08T12:25:38;25.30;71.90
69082;DHT22;69029;51.986;5.760;2023-05-08T12:28:08;25.50;69.40
69082;DHT22;69029;51.986;5.760;2023-05-08T12:30:34;25.30;70.90
69082;DHT22;69029;51.986;5.760;2023-05-08T12:33:01;25.20;68.20
69082;DHT22;69029;51.986;5.760;2023-05-08T12:35:27;25.10;71.50
69082;DHT22;69029;51.986;5.760;2023-05-08T12:37:53;24.90;67.00
69082;DHT22;69029;51.986;5.760;2023-05-08T12:40:30;24.60;68.10
69082;DHT22;69029;51.986;5.760;2023-05-08T12:42:56;25.00;67.20
69082;DHT22;69029;51.986;5.760;2023-05-08T12:45:26;24.90;66.40
69082;DHT22;69029;51.986;5.760;2023-05-08T12:47:57;24.90;68.80
69082;DHT22;69029;51.986;5.760;2023-05-08T12:50:23;25.20;68.80
69082;DHT22;69029;51.986;5.760;2023-05-08T12:52:52;25.60;65.70
69082;DHT22;69029;51.986;5.760;2023-05-08T12:55:22;25.70;67.90
69082;DHT22;69029;51.986;5.760;2023-05-08T12:57:49;25.80;67.60
69082;DHT22;69029;51.986;5.760;2023-05-08T13:00:16;25.80;65.60
69082;DHT22;69029;51.986;5.760;2023-05-08T13:02:54;25.90;66.80
69082;DHT22;69029;51.986;5.760;2023-05-08T13:05:21;26.50;65.80
69082;DHT22;69029;51.986;5.760;2023-05-08T13:07:48;27.10;64.50
69082;DHT22;69029;51.986;5.760;2023-05-08T13:10:16;27.80;65.10
69082;DHT22;69029;51.986;5.760;2023-05-08T13:12:44;28.20;60.70
69082;DHT22;69029;51.986;5.760;2023-05-08T13:15:10;27.50;65.30
69082;DHT22;69029;51.986;5.760;2023-05-08T13:17:36;28.00;64.10
69082;DHT22;69029;51.986;5.760;2023-05-08T13:20:02;29.10;63.00
69082;DHT22;69029;51.986;5.760;2023-05-08T13:22:30;29.60;56.30
69082;DHT22;69029;51.986;5.760;2023-05-08T13:24:55;30.20;60.20
69082;DHT22;69029;51.986;5.760;2023-05-08T13:27:21;30.30;57.20
69082;DHT22;69029;51.986;5.760;2023-05-08T13:29:47;30.40;60.40
69082;DHT22;69029;51.986;5.760;2023-05-08T13:32:13;30.30;52.10
69082;DHT22;69029;51.986;5.760;2023-05-08T13:34:38;30.40;59.80
69082;DHT22;69029;51.986;5.760;2023-05-08T13:37:04;30.00;54.40
69082;DHT22;69029;51.986;5.760;2023-05-08T13:39:31;29.20;58.80
69082;DHT22;69029;51.986;5.760;2023-05-08T13:42:01;29.10;62.10
69082;DHT22;69029;51.986;5.760;2023-05-08T13:44:26;29.50;53.90
69082;DHT22;69029;51.986;5.760;2023-05-08T13:46:53;29.50;55.00
69082;DHT22;69029;51.986;5.760;2023-05-08T13:49:19;29.70;57.10
69082;DHT22;69029;51.986;5.760;2023-05-08T13:51:48;29.90;59.50
69082;DHT22;69029;51.986;5.760;2023-05-08T13:54:14;30.00;56.20
69082;DHT22;69029;51.986;5.760;2023-05-08T13:56:40;29.70;54.60
69082;DHT22;69029;51.986;5.760;2023-05-08T13:59:06;29.90;57.90
69082;DHT22;69029;51.986;5.760;2023-05-08T14:01:32;30.40;56.30
69082;DHT22;69029;51.986;5.760;2023-05-08T14:03:57;29.90;55.10
69082;DHT22;69029;51.986;5.760;2023-05-08T14:06:23;29.70;51.10
69082;DHT22;69029;51.986;5.760;2023-05-08T14:08:48;29.30;60.20
69082;DHT22;69029;51.986;5.760;2023-05-08T14:11:14;29.30;59.40
69082;DHT22;69029;51.986;5.760;2023-05-08T14:13:40;29.30;55.50
69082;DHT22;69029;51.986;5.760;2023-05-08T14:16:05;29.60;53.80
69082;DHT22;69029;51.986;5.760;2023-05-08T14:18:32;30.00;53.40
69082;DHT22;69029;51.986;5.760;2023-05-08T14:20:59;30.60;56.00
69082;DHT22;69029;51.986;5.760;2023-05-08T14:23:25;31.10;51.90
69082;DHT22;69029;51.986;5.760;2023-05-08T14:25:51;31.20;50.30
69082;DHT22;69029;51.986;5.760;2023-05-08T14:28:17;31.70;51.30
69082;DHT22;69029;51.986;5.760;2023-05-08T14:30:42;32.00;54.40
69082;DHT22;69029;51.986;5.760;2023-05-08T14:33:08;31.90;53.70
69082;DHT22;69029;51.986;5.760;2023-05-08T14:35:33;31.30;49.80
69082;DHT22;69029;51.986;5.760;2023-05-08T14:37:59;31.10;52.90
69082;DHT22;69029;51.986;5.760;2023-05-08T14:40:25;31.00;51.20
69082;DHT22;69029;51.986;5.760;2023-05-08T14:42:51;31.40;56.00
69082;DHT22;69029;51.986;5.760;2023-05-08T14:45:16;32.10;52.80
69082;DHT22;69029;51.986;5.760;2023-05-08T14:47:42;31.90;52.30
69082;DHT22;69029;51.986;5.760;2023-05-08T14:50:07;31.50;52.70
69082;DHT22;69029;51.986;5.760;2023-05-08T14:52:33;31.40;54.30
69082;DHT22;69029;51.986;5.760;2023-05-08T14:54:59;31.30;55.50
69082;DHT22;69029;51.986;5.760;2023-05-08T14:57:24;31.90;52.10
69082;DHT22;69029;51.986;5.760;2023-05-08T14:59:50;32.10;47.70
69082;DHT22;69029;51.986;5.760;2023-05-08T15:02:15;32.70;46.50
69082;DHT22;69029;51.986;5.760;2023-05-08T15:04:42;32.40;50.00
69082;DHT22;69029;51.986;5.760;2023-05-08T15:07:08;32.70;49.40
69082;DHT22;69029;51.986;5.760;2023-05-08T15:09:34;32.70;46.20
69082;DHT22;69029;51.986;5.760;2023-05-08T15:11:59;32.60;46.40
69082;DHT22;69029;51.986;5.760;2023-05-08T15:14:25;32.20;48.50
69082;DHT22;69029;51.986;5.760;2023-05-08T15:16:51;31.30;51.70
69082;DHT22;69029;51.986;5.760;2023-05-08T15:19:17;31.10;48.00
69082;DHT22;69029;51.986;5.760;2023-05-08T15:21:42;30.50;49.80
69082;DHT22;69029;51.986;5.760;2023-05-08T15:24:08;30.30;51.80
69082;DHT22;69029;51.986;5.760;2023-05-08T15:26:33;30.10;50.50
69082;DHT22;69029;51.986;5.760;2023-05-08T15:28:59;29.70;50.50
69082;DHT22;69029;51.986;5.760;2023-05-08T15:31:25;29.40;52.60
69082;DHT22;69029;51.986;5.760;2023-05-08T15:33:51;28.70;52.60
69082;DHT22;69029;51.986;5.760;2023-05-08T15:36:16;28.30;55.70
69082;DHT22;69029;51.986;5.760;2023-05-08T15:38:42;28.20;54.80
69082;DHT22;69029;51.986;5.760;2023-05-08T15:41:08;28.00;55.50
69082;DHT22;69029;51.986;5.760;2023-05-08T15:43:37;28.00;55.40
69082;DHT22;69029;51.986;5.760;2023-05-08T15:46:03;27.80;55.20
69082;DHT22;69029;51.986;5.760;2023-05-08T15:48:29;27.60;54.00
69082;DHT22;69029;51.986;5.760;2023-05-08T15:50:54;27.80;55.40
69082;DHT22;69029;51.986;5.760;2023-05-08T15:53:20;28.10;51.60
69082;DHT22;69029;51.986;5.760;2023-05-08T15:55:46;27.80;51.10
69082;DHT22;69029;51.986;5.760;2023-05-08T15:58:12;27.80;55.10
69082;DHT22;69029;51.986;5.760;2023-05-08T16:00:37;27.80;53.70
69082;DHT22;69029;51.986;5.760;2023-05-08T16:03:03;27.40;54.40
69082;DHT22;69029;51.986;5.760;2023-05-08T16:05:28;27.30;56.60
69082;DHT22;69029;51.986;5.760;2023-05-08T16:07:54;27.10;54.40
69082;DHT22;69029;51.986;5.760;2023-05-08T16:10:20;26.70;56.90
69082;DHT22;69029;51.986;5.760;2023-05-08T16:12:45;26.40;57.60
69082;DHT22;69029;51.986;5.760;2023-05-08T16:15:11;26.40;58.40
69082;DHT22;69029;51.986;5.760;2023-05-08T16:17:37;26.50;57.70
69082;DHT22;69029;51.986;5.760;2023-05-08T16:20:03;26.50;57.30
69082;DHT22;69029;51.986;5.760;2023-05-08T16:22:29;26.50;58.00
69082;DHT22;69029;51.986;5.760;2023-05-08T16:24:56;26.20;58.10
69082;DHT22;69029;51.986;5.760;2023-05-08T16:27:22;26.00;58.70
69082;DHT22;69029;51.986;5.760;2023-05-08T16:29:47;25.80;59.40